createdAt,value
2022-07-29T00:01:19.657Z,3.50
2022-07-29T00:03:47.400Z,3.17
2022-07-29T00:06:16.295Z,4.10
2022-07-29T00:08:43.330Z,3.22
2022-07-29T00:11:10.478Z,3.42
2022-07-29T00:13:37.723Z,3.70
2022-07-29T00:16:05.715Z,4.43
2022-07-29T00:18:34.013Z,4.07
2022-07-29T00:21:01.460Z,3.95
2022-07-29T00:23:29.851Z,4.10
2022-07-29T00:25:57.722Z,4.50
2022-07-29T00:28:24.794Z,3.97
2022-07-29T00:30:51.818Z,4.13
2022-07-29T00:33:19.023Z,4.10
2022-07-29T00:35:46.037Z,4.15
2022-07-29T00:38:17.209Z,3.92
2022-07-29T00:40:46.276Z,4.05
2022-07-29T00:43:16.289Z,4.70
2022-07-29T00:45:44.118Z,4.43
2022-07-29T00:48:11.574Z,4.55
2022-07-29T00:50:39.892Z,4.30
2022-07-29T00:53:10.050Z,4.18
2022-07-29T00:55:37.329Z,4.47
2022-07-29T00:58:04.879Z,4.28
2022-07-29T01:00:32.381Z,4.95
2022-07-29T01:03:00.190Z,4.78
2022-07-29T01:05:50.994Z,4.72
2022-07-29T01:08:19.801Z,4.05
2022-07-29T01:10:48.834Z,4.05
2022-07-29T01:13:18.973Z,4.70
2022-07-29T01:16:00.207Z,4.35
2022-07-29T01:18:40.305Z,5.00
2022-07-29T01:21:54.488Z,4.38
2022-07-29T01:24:38.478Z,3.75
2022-07-29T01:27:39.481Z,4.75
2022-07-29T01:30:07.699Z,4.70
2022-07-29T01:32:41.809Z,4.68
2022-07-29T01:35:29.764Z,4.57
2022-07-29T01:38:13.629Z,4.43
2022-07-29T01:41:06.182Z,4.72
2022-07-29T01:43:52.785Z,4.60
2022-07-29T01:46:39.383Z,4.57
2022-07-29T01:49:28.319Z,4.55
2022-07-29T01:52:22.978Z,5.07
2022-07-29T01:55:12.837Z,4.93
2022-07-29T01:57:47.561Z,5.22
2022-07-29T02:00:16.576Z,4.78
2022-07-29T02:02:50.714Z,4.47
2022-07-29T02:05:24.440Z,5.18
2022-07-29T02:07:58.912Z,4.63
2022-07-29T02:10:33.970Z,4.63
2022-07-29T02:13:04.645Z,5.40
2022-07-29T02:15:36.854Z,4.97
2022-07-29T02:18:23.372Z,5.10
2022-07-29T02:20:58.921Z,5.00
2022-07-29T02:23:28.386Z,4.72
2022-07-29T02:26:00.587Z,5.18
2022-07-29T02:28:31.970Z,5.10
2022-07-29T02:31:05.183Z,4.63
2022-07-29T02:33:35.512Z,4.72
2022-07-29T02:36:04.669Z,5.07
2022-07-29T02:38:54.457Z,5.05
2022-07-29T02:41:38.303Z,4.95
2022-07-29T02:44:14.390Z,5.35
2022-07-29T02:47:02.588Z,4.72
2022-07-29T02:49:55.033Z,5.13
2022-07-29T02:52:45.488Z,4.72
2022-07-29T02:55:45.914Z,5.22
2022-07-29T02:58:43.640Z,5.30
2022-07-29T03:01:23.823Z,5.18
2022-07-29T03:03:56.112Z,5.03
2022-07-29T03:06:38.763Z,4.38
2022-07-29T03:09:13.529Z,5.28
2022-07-29T03:11:49.432Z,4.93
2022-07-29T03:14:21.426Z,5.93
2022-07-29T03:16:51.979Z,5.18
2022-07-29T03:19:21.405Z,5.60
2022-07-29T03:21:49.255Z,5.13
2022-07-29T03:24:36.294Z,5.20
2022-07-29T03:27:06.424Z,5.05
2022-07-29T03:29:34.735Z,5.20
2022-07-29T03:32:08.688Z,4.95
2022-07-29T03:34:38.757Z,4.60
2022-07-29T03:37:08.054Z,5.95
2022-07-29T03:39:43.642Z,5.03
2022-07-29T03:42:19.120Z,5.72
2022-07-29T03:44:51.439Z,4.53
2022-07-29T03:47:50.007Z,5.20
2022-07-29T03:50:18.104Z,5.13
2022-07-29T03:52:45.610Z,5.28
2022-07-29T03:55:15.076Z,4.80
2022-07-29T03:57:45.520Z,4.95
2022-07-29T04:00:14.481Z,4.47
2022-07-29T04:02:46.069Z,5.22
2022-07-29T04:05:16.091Z,4.95
2022-07-29T04:07:49.082Z,5.20
2022-07-29T04:10:30.658Z,5.35
2022-07-29T04:13:00.984Z,5.45
2022-07-29T04:15:30.986Z,5.07
2022-07-29T04:17:59.952Z,4.95
2022-07-29T04:20:27.031Z,5.28
2022-07-29T04:22:54.097Z,5.50
2022-07-29T04:25:21.230Z,5.18
2022-07-29T04:28:03.832Z,5.30
2022-07-29T04:30:33.815Z,5.28
2022-07-29T04:33:05.484Z,5.35
2022-07-29T04:35:38.668Z,5.10
2022-07-29T04:38:15.542Z,5.10
2022-07-29T04:40:43.039Z,4.82
2022-07-29T04:43:10.058Z,5.25
2022-07-29T04:45:38.957Z,6.22
2022-07-29T04:48:06.421Z,5.28
2022-07-29T04:50:34.115Z,4.78
2022-07-29T04:53:01.165Z,5.53
2022-07-29T04:55:28.244Z,5.00
2022-07-29T04:57:55.222Z,5.13
2022-07-29T05:00:24.168Z,4.78
2022-07-29T05:02:59.277Z,5.00
2022-07-29T05:05:26.428Z,4.43
2022-07-29T05:07:53.470Z,5.35
2022-07-29T05:10:20.503Z,5.05
2022-07-29T05:12:48.188Z,4.63
2022-07-29T05:15:15.824Z,4.57
2022-07-29T05:17:42.827Z,4.55
2022-07-29T05:20:11.102Z,4.10
2022-07-29T05:22:38.194Z,4.45
2022-07-29T05:25:09.119Z,4.90
2022-07-29T05:27:37.893Z,5.25
2022-07-29T05:30:06.060Z,4.55
2022-07-29T05:32:33.114Z,4.93
2022-07-29T05:35:00.188Z,4.47
2022-07-29T05:37:27.271Z,6.38
2022-07-29T05:39:56.581Z,4.70
2022-07-29T05:42:26.944Z,6.13
2022-07-29T05:44:54.966Z,4.60
2022-07-29T05:49:49.731Z,4.60
2022-07-29T05:52:16.853Z,5.13
2022-07-29T05:54:44.804Z,4.60
2022-07-29T05:57:22.249Z,4.93
2022-07-29T05:59:51.883Z,4.32
2022-07-29T06:02:19.632Z,4.40
2022-07-29T06:04:47.112Z,4.75
2022-07-29T06:07:14.299Z,4.40
2022-07-29T06:09:41.327Z,4.50
2022-07-29T06:12:12.729Z,4.03
2022-07-29T06:14:40.010Z,4.75
2022-07-29T06:17:07.141Z,4.23
2022-07-29T06:19:37.442Z,3.90
2022-07-29T06:22:05.505Z,4.28
2022-07-29T06:26:59.629Z,4.57
2022-07-29T06:29:26.779Z,3.87
2022-07-29T06:31:53.820Z,3.47
2022-07-29T06:34:20.897Z,4.37
2022-07-29T06:36:48.020Z,3.97
2022-07-29T06:39:15.932Z,3.80
2022-07-29T06:41:43.090Z,3.38
2022-07-29T06:44:12.930Z,3.42
2022-07-29T06:46:40.336Z,3.83
2022-07-29T06:49:07.701Z,3.53
2022-07-29T06:51:35.258Z,3.83
2022-07-29T06:54:03.766Z,4.25
2022-07-29T06:56:40.230Z,4.28
2022-07-29T06:59:13.544Z,3.67
2022-07-29T07:01:44.479Z,3.85
2022-07-29T07:04:14.578Z,4.05
2022-07-29T07:06:42.402Z,3.63
2022-07-29T07:09:09.529Z,3.67
2022-07-29T07:11:36.669Z,3.63
2022-07-29T07:14:04.474Z,3.90
2022-07-29T07:19:00.822Z,3.35
2022-07-29T07:21:30.254Z,3.45
2022-07-29T07:23:58.761Z,3.70
2022-07-29T07:28:54.091Z,3.90
2022-07-29T07:31:21.214Z,3.45
2022-07-29T07:33:48.356Z,3.25
2022-07-29T07:36:15.368Z,3.90
2022-07-29T07:38:42.418Z,4.03
2022-07-29T07:41:09.564Z,2.87
2022-07-29T07:43:36.718Z,3.60
2022-07-29T07:46:03.850Z,2.75
2022-07-29T07:48:31.281Z,2.83
2022-07-29T07:50:58.375Z,3.13
2022-07-29T07:53:25.773Z,2.88
2022-07-29T07:56:09.956Z,3.10
2022-07-29T07:58:38.724Z,3.63
2022-07-29T08:01:05.885Z,2.95
2022-07-29T08:03:34.409Z,3.42
2022-07-29T08:06:01.980Z,4.13
2022-07-29T08:08:29.011Z,2.65
2022-07-29T08:11:00.662Z,3.60
2022-07-29T08:13:31.426Z,3.22
2022-07-29T08:16:12.535Z,3.63
2022-07-29T08:18:43.334Z,2.80
2022-07-29T08:21:10.452Z,2.90
2022-07-29T08:23:46.514Z,3.60
2022-07-29T08:28:49.677Z,3.30
2022-07-29T08:31:18.824Z,3.08
2022-07-29T08:33:46.066Z,3.08
2022-07-29T08:36:14.211Z,3.10
2022-07-29T08:38:41.346Z,3.10
2022-07-29T08:41:08.617Z,3.13
2022-07-29T08:43:38.532Z,2.88
2022-07-29T08:46:06.807Z,3.10
2022-07-29T08:48:35.468Z,2.88
2022-07-29T08:51:04.655Z,2.55
2022-07-29T08:53:34.391Z,2.90
2022-07-29T08:56:03.081Z,2.88
2022-07-29T08:58:36.899Z,2.75
2022-07-29T09:01:06.860Z,3.28
2022-07-29T09:03:40.710Z,3.20
2022-07-29T09:06:08.713Z,2.70
2022-07-29T09:08:36.187Z,2.88
2022-07-29T09:11:05.311Z,3.00
2022-07-29T09:13:32.817Z,2.38
2022-07-29T09:15:59.845Z,2.35
2022-07-29T09:18:43.165Z,2.40
2022-07-29T09:21:35.434Z,2.53
2022-07-29T09:24:10.187Z,2.92
2022-07-29T09:26:45.122Z,2.63
2022-07-29T09:29:25.784Z,2.72
2022-07-29T09:31:56.765Z,2.83
2022-07-29T09:34:32.527Z,2.35
2022-07-29T09:36:59.684Z,2.47
2022-07-29T09:39:46.712Z,2.85
2022-07-29T09:42:29.046Z,2.50
2022-07-29T09:44:56.436Z,2.42
2022-07-29T09:47:26.950Z,2.45
2022-07-29T09:50:00.570Z,2.45
2022-07-29T09:52:31.322Z,3.03
2022-07-29T09:55:18.220Z,2.40
2022-07-29T09:57:47.878Z,2.30
2022-07-29T10:00:20.231Z,2.35
2022-07-29T10:02:49.443Z,2.22
2022-07-29T10:05:36.755Z,2.22
2022-07-29T10:08:04.550Z,2.67
2022-07-29T10:10:37.214Z,2.28
2022-07-29T10:13:16.303Z,2.42
2022-07-29T10:15:47.281Z,2.40
2022-07-29T10:18:18.578Z,2.67
2022-07-29T10:20:46.301Z,2.53
2022-07-29T10:25:45.926Z,2.28
2022-07-29T10:28:16.440Z,2.33
2022-07-29T10:30:51.406Z,2.42
2022-07-29T10:34:05.176Z,2.40
2022-07-29T10:37:19.448Z,2.60
2022-07-29T10:40:47.676Z,2.17
2022-07-29T10:43:42.487Z,2.80
2022-07-29T10:46:14.523Z,2.70
2022-07-29T10:49:24.318Z,2.50
2022-07-29T10:52:06.172Z,3.42
2022-07-29T10:54:52.086Z,2.88
2022-07-29T10:57:54.210Z,3.25
2022-07-29T11:00:30.859Z,3.20
2022-07-29T11:02:59.436Z,2.72
2022-07-29T11:05:40.081Z,2.60
2022-07-29T11:08:19.637Z,2.72
2022-07-29T11:10:50.305Z,3.47
2022-07-29T11:13:47.258Z,3.60
2022-07-29T11:16:20.191Z,3.70
2022-07-29T11:19:26.648Z,2.78
2022-07-29T11:21:58.883Z,4.13
2022-07-29T11:24:35.813Z,3.25
2022-07-29T11:27:22.034Z,3.83
2022-07-29T11:32:48.578Z,3.42
2022-07-29T11:35:37.371Z,3.95
2022-07-29T11:38:23.760Z,3.60
2022-07-29T11:41:36.912Z,4.38
2022-07-29T11:44:04.715Z,3.53
2022-07-29T11:46:53.928Z,3.63
2022-07-29T11:49:32.541Z,4.10
2022-07-29T11:52:15.501Z,3.38
2022-07-29T11:54:58.220Z,3.80
2022-07-29T11:57:37.153Z,3.65
2022-07-29T12:00:12.096Z,3.60
2022-07-29T12:02:43.528Z,3.60
2022-07-29T12:07:02.572Z,4.97
2022-07-29T12:08:19.582Z,4.25
2022-07-29T12:10:51.567Z,3.70
2022-07-29T12:13:22.923Z,3.55
2022-07-29T12:16:04.854Z,4.20
2022-07-29T12:18:33.263Z,3.35
2022-07-29T12:21:04.966Z,3.28
2022-07-29T12:23:36.120Z,3.83
2022-07-29T12:26:10.493Z,3.97
2022-07-29T12:28:39.966Z,4.00
2022-07-29T12:31:14.987Z,3.47
2022-07-29T12:34:02.628Z,3.72
2022-07-29T12:36:30.050Z,3.33
2022-07-29T12:38:57.765Z,4.10
2022-07-29T12:41:24.973Z,3.65
2022-07-29T12:43:56.345Z,4.32
2022-07-29T12:46:23.556Z,4.10
2022-07-29T12:48:56.292Z,3.58
2022-07-29T12:51:38.557Z,3.75
2022-07-29T12:54:14.459Z,3.47
2022-07-29T12:56:46.030Z,4.05
2022-07-29T12:59:24.018Z,3.63
2022-07-29T13:01:53.633Z,4.10
2022-07-29T13:04:34.125Z,4.15
2022-07-29T13:07:09.200Z,3.40
2022-07-29T13:09:46.529Z,3.90
2022-07-29T13:12:16.859Z,4.20
2022-07-29T13:14:51.052Z,3.55
2022-07-29T13:17:32.962Z,3.60
2022-07-29T13:20:13.619Z,3.67
2022-07-29T13:22:45.721Z,3.78
2022-07-29T13:25:12.801Z,3.58
2022-07-29T13:27:40.866Z,3.95
2022-07-29T13:30:11.691Z,3.80
2022-07-29T13:32:38.767Z,3.95
2022-07-29T13:35:09.940Z,4.30
2022-07-29T13:37:41.108Z,3.75
2022-07-29T13:40:10.897Z,3.33
2022-07-29T13:42:38.955Z,3.40
2022-07-29T13:45:08.025Z,3.60
2022-07-29T13:47:35.112Z,3.80
2022-07-29T13:50:06.266Z,3.55
2022-07-29T13:52:35.646Z,3.40
2022-07-29T13:55:04.226Z,3.75
2022-07-29T13:57:31.621Z,3.85
2022-07-29T13:59:58.792Z,3.78
2022-07-29T14:02:26.373Z,3.30
2022-07-29T14:04:55.133Z,4.03
2022-07-29T14:07:23.839Z,3.47
2022-07-29T14:09:51.847Z,2.97
2022-07-29T14:12:20.318Z,3.47
2022-07-29T14:14:47.517Z,3.63
2022-07-29T14:17:15.920Z,3.38
2022-07-29T14:19:43.988Z,3.78
2022-07-29T14:22:11.066Z,3.33
2022-07-29T14:24:39.568Z,3.45
2022-07-29T14:27:09.056Z,3.63
2022-07-29T14:29:38.816Z,3.17
2022-07-29T14:32:08.379Z,3.10
2022-07-29T14:34:37.929Z,3.65
2022-07-29T14:37:07.206Z,3.90
2022-07-29T14:39:42.934Z,3.90
2022-07-29T14:42:15.330Z,3.38
2022-07-29T14:44:42.752Z,3.38
2022-07-29T14:47:10.473Z,3.40
2022-07-29T14:49:37.819Z,3.53
2022-07-29T14:54:32.565Z,3.60
2022-07-29T14:56:59.602Z,3.80
2022-07-29T14:59:27.865Z,3.15
2022-07-29T15:01:55.451Z,3.40
2022-07-29T15:04:22.665Z,3.75
2022-07-29T15:06:50.042Z,3.40
2022-07-29T15:11:44.058Z,4.22
2022-07-29T15:14:12.266Z,3.20
2022-07-29T15:16:44.049Z,3.30
2022-07-29T15:19:14.186Z,3.30
2022-07-29T15:21:41.690Z,3.33
2022-07-29T15:24:20.722Z,3.47
2022-07-29T15:26:48.773Z,3.45
2022-07-29T15:29:16.554Z,2.80
2022-07-29T15:31:44.574Z,3.20
2022-07-29T15:34:11.834Z,3.15
2022-07-29T15:36:54.588Z,3.75
2022-07-29T15:39:23.278Z,3.83
2022-07-29T15:41:51.835Z,3.72
2022-07-29T15:44:19.899Z,3.78
2022-07-29T15:47:04.625Z,3.63
2022-07-29T15:49:47.555Z,3.03
2022-07-29T15:52:24.963Z,3.47
2022-07-29T15:54:57.038Z,3.88
2022-07-29T15:57:25.546Z,3.70
2022-07-29T15:59:53.251Z,3.58
2022-07-29T16:02:20.803Z,3.53
2022-07-29T16:04:48.095Z,3.58
2022-07-29T16:07:16.011Z,3.13
2022-07-29T16:09:49.387Z,2.80
2022-07-29T16:12:21.308Z,3.25
2022-07-29T16:14:51.265Z,3.70
2022-07-29T16:17:19.358Z,4.32
2022-07-29T16:19:46.985Z,3.47
2022-07-29T16:22:14.578Z,3.65
2022-07-29T16:24:41.813Z,2.92
2022-07-29T16:27:09.802Z,3.20
2022-07-29T16:29:37.511Z,3.92
2022-07-29T16:32:06.704Z,3.35
2022-07-29T16:34:34.379Z,4.07
2022-07-29T16:37:01.755Z,3.35
2022-07-29T16:39:29.435Z,3.35
2022-07-29T16:44:28.769Z,3.80
2022-07-29T16:46:58.755Z,3.35
2022-07-29T16:49:28.160Z,3.10
2022-07-29T16:51:55.375Z,3.58
2022-07-29T16:54:22.552Z,3.72
2022-07-29T16:56:49.623Z,3.88
2022-07-29T16:59:16.743Z,3.60
2022-07-29T17:01:43.818Z,3.75
2022-07-29T17:04:12.090Z,3.65
2022-07-29T17:06:41.417Z,3.40
2022-07-29T17:09:12.315Z,3.63
2022-07-29T17:11:53.508Z,3.38
2022-07-29T17:14:25.363Z,3.60
2022-07-29T17:17:01.099Z,3.38
2022-07-29T17:19:36.446Z,3.55
2022-07-29T17:22:15.505Z,3.63
2022-07-29T17:24:47.833Z,3.83
2022-07-29T17:27:15.491Z,3.33
2022-07-29T17:29:42.962Z,3.42
2022-07-29T17:32:11.476Z,3.40
2022-07-29T17:34:43.464Z,3.95
2022-07-29T17:37:12.514Z,3.83
2022-07-29T17:39:42.267Z,3.17
2022-07-29T17:42:16.596Z,4.05
2022-07-29T17:44:43.812Z,3.40
2022-07-29T17:47:15.639Z,3.03
2022-07-29T17:49:45.086Z,3.30
2022-07-29T17:52:12.254Z,3.50
2022-07-29T17:54:39.296Z,3.05
2022-07-29T17:57:06.385Z,3.58
2022-07-29T17:59:33.504Z,3.17
2022-07-29T18:02:00.680Z,3.00
2022-07-29T18:04:28.739Z,3.22
2022-07-29T18:06:56.401Z,3.28
2022-07-29T18:09:23.725Z,3.33
2022-07-29T18:11:51.786Z,3.05
2022-07-29T18:14:19.287Z,3.35
2022-07-29T18:16:46.463Z,3.17
2022-07-29T18:19:13.678Z,3.95
2022-07-29T18:21:51.868Z,3.22
2022-07-29T18:24:27.616Z,3.00
2022-07-29T18:26:56.546Z,4.63
2022-07-29T18:29:24.002Z,3.10
2022-07-29T18:31:51.026Z,2.95
2022-07-29T18:34:18.104Z,3.00
2022-07-29T18:36:46.041Z,2.97
2022-07-29T18:39:20.314Z,2.92
2022-07-29T18:41:51.371Z,2.47
2022-07-29T18:44:22.011Z,2.85
2022-07-29T18:46:52.378Z,3.08
2022-07-29T18:49:20.572Z,3.15
2022-07-29T18:51:48.834Z,2.80
2022-07-29T18:54:18.070Z,2.90
2022-07-29T18:56:47.698Z,2.85
2022-07-29T18:59:17.224Z,2.78
2022-07-29T19:01:44.622Z,2.40
2022-07-29T19:04:11.831Z,2.90
2022-07-29T19:06:40.760Z,2.95
2022-07-29T19:09:08.851Z,4.35
2022-07-29T19:11:38.370Z,3.00
2022-07-29T19:14:06.667Z,3.25
2022-07-29T19:16:33.831Z,2.78
2022-07-29T19:19:01.134Z,3.85
2022-07-29T19:21:28.763Z,2.63
2022-07-29T19:24:00.722Z,2.90
2022-07-29T19:26:36.807Z,2.80
2022-07-29T19:29:05.323Z,2.90
2022-07-29T19:31:32.524Z,2.75
2022-07-29T19:33:59.631Z,3.17
2022-07-29T19:36:27.541Z,2.88
2022-07-29T19:38:54.718Z,3.22
2022-07-29T19:41:21.830Z,3.22
2022-07-29T19:43:50.378Z,3.10
2022-07-29T19:46:20.747Z,3.25
2022-07-29T19:48:48.167Z,2.78
2022-07-29T19:51:15.273Z,3.08
2022-07-29T19:53:42.622Z,2.95
2022-07-29T19:56:09.630Z,3.30
2022-07-29T19:58:36.867Z,4.60
2022-07-29T20:01:10.308Z,3.00
2022-07-29T20:03:40.376Z,3.08
2022-07-29T20:06:07.981Z,2.85
2022-07-29T20:08:35.613Z,2.85
2022-07-29T20:11:03.757Z,3.35
2022-07-29T20:13:33.193Z,2.28
2022-07-29T20:16:02.130Z,4.22
2022-07-29T20:18:29.499Z,3.20
2022-07-29T20:20:57.746Z,3.28
2022-07-29T20:23:24.913Z,3.08
2022-07-29T20:25:52.459Z,2.88
2022-07-29T20:28:21.274Z,2.88
2022-07-29T20:30:48.562Z,2.55
2022-07-29T20:33:16.416Z,2.40
2022-07-29T20:35:43.916Z,2.83
2022-07-29T20:38:15.027Z,3.35
2022-07-29T20:40:45.065Z,2.63
2022-07-29T20:43:12.283Z,3.17
2022-07-29T20:45:39.625Z,3.05
2022-07-29T20:48:08.295Z,2.72
2022-07-29T20:50:36.003Z,2.90
2022-07-29T20:53:03.365Z,3.08
2022-07-29T20:55:32.121Z,2.90
2022-07-29T20:57:59.418Z,2.88
2022-07-29T21:00:26.653Z,2.63
2022-07-29T21:02:53.786Z,2.67
2022-07-29T21:05:21.006Z,3.05
2022-07-29T21:07:48.159Z,3.13
2022-07-29T21:10:18.391Z,3.00
2022-07-29T21:12:48.851Z,3.45
2022-07-29T21:15:16.431Z,2.92
2022-07-29T21:17:47.237Z,2.90
2022-07-29T21:20:19.070Z,3.20
2022-07-29T21:22:46.361Z,2.90
2022-07-29T21:25:13.660Z,4.50
2022-07-29T21:27:59.192Z,2.95
2022-07-29T21:30:26.430Z,2.88
2022-07-29T21:32:53.674Z,3.80
2022-07-29T21:36:02.089Z,3.42
2022-07-29T21:38:07.823Z,3.50
2022-07-29T21:40:34.835Z,3.33
2022-07-29T21:43:01.892Z,3.30
2022-07-29T21:45:29.042Z,2.78
2022-07-29T21:47:56.040Z,3.42
2022-07-29T21:50:23.096Z,3.27
2022-07-29T21:52:50.145Z,2.80
2022-07-29T21:55:18.573Z,3.03
2022-07-29T21:57:46.550Z,3.00
2022-07-29T22:00:17.203Z,5.03
2022-07-29T22:02:44.964Z,2.97
2022-07-29T22:05:14.086Z,3.13
2022-07-29T22:07:55.924Z,3.25
2022-07-29T22:10:30.000Z,2.85
2022-07-29T22:13:00.857Z,3.42
2022-07-29T22:15:30.235Z,3.03
2022-07-29T22:17:57.926Z,3.35
2022-07-29T22:20:25.763Z,3.33
2022-07-29T22:25:22.513Z,3.85
2022-07-29T22:27:49.708Z,3.65
2022-07-29T22:30:17.428Z,3.85
2022-07-29T22:32:44.879Z,3.83
2022-07-29T22:35:12.081Z,3.50
2022-07-29T22:37:40.280Z,2.80
2022-07-29T22:40:08.653Z,3.30
2022-07-29T22:42:36.118Z,2.83
2022-07-29T22:45:10.682Z,3.63
2022-07-29T22:47:46.653Z,4.15
2022-07-29T22:50:16.559Z,3.25
2022-07-29T22:52:43.653Z,3.00
2022-07-29T22:55:11.137Z,3.47
2022-07-29T22:57:38.512Z,3.17
2022-07-29T23:00:07.846Z,3.50
2022-07-29T23:02:36.389Z,3.53
2022-07-29T23:05:04.762Z,3.30
2022-07-29T23:07:33.727Z,3.45
2022-07-29T23:10:01.444Z,3.33
2022-07-29T23:12:28.536Z,3.50
2022-07-29T23:14:55.621Z,3.63
2022-07-29T23:17:22.734Z,3.00
2022-07-29T23:19:49.904Z,2.88
2022-07-29T23:22:18.508Z,3.38
2022-07-29T23:24:45.747Z,2.88
2022-07-29T23:27:12.840Z,3.30
2022-07-29T23:29:39.819Z,3.30
2022-07-29T23:32:07.156Z,3.85
2022-07-29T23:34:34.303Z,3.15
2022-07-29T23:37:01.702Z,3.47
2022-07-29T23:39:28.993Z,3.15
2022-07-29T23:41:56.493Z,3.73
2022-07-29T23:44:23.514Z,3.33
2022-07-29T23:46:50.634Z,3.03
2022-07-29T23:49:17.916Z,3.40
2022-07-29T23:51:44.960Z,3.28
2022-07-29T23:54:12.131Z,3.50
2022-07-29T23:56:39.197Z,3.37
2022-07-29T23:59:06.318Z,3.47
